Time;durP1;ratioP1;P1;durP2;ratioP2;P2;SDS_P1;SDS_P2;PMS_P1;PMS_P2;Temp;Humidity;BMP_temperature;BMP_pressure;BME280_temperature;BME280_humidity;BME280_pressure;Samples;Min_cycle;Max_cycle;Signal;HPM_P1;HPM_P2
2023/06/27 00:00:56;;;;;;;9.02;6.38;;;;;;;;;;5075091;28;20037;-82
2023/06/27 00:03:42;;;;;;;11.77;6.28;;;;;;;;;;5081437;28;20056;-84
2023/06/27 00:06:27;;;;;;;9.82;6.55;;;;;;;;;;5074595;28;20111;-83
2023/06/27 00:09:22;;;;;;;8.45;7.10;;;;;;;;;;5074050;28;20052;-83
2023/06/27 00:12:08;;;;;;;12.35;6.93;;;;;;;;;;5066490;28;20037;-85
2023/06/27 00:14:55;;;;;;;10.35;6.97;;;;;;;;;;5066647;28;20040;-82
2023/06/27 00:17:40;;;;;;;9.98;7.07;;;;;;;;;;5066351;28;20049;-83
2023/06/27 00:20:27;;;;;;;10.65;7.25;;;;;;;;;;5080957;28;20044;-84
2023/06/27 00:23:18;;;;;;;8.82;6.53;;;;;;;;;;5073613;28;20041;-84
2023/06/27 00:26:06;;;;;;;9.15;6.63;;;;;;;;;;5079932;28;20481;-84
2023/06/27 00:28:54;;;;;;;10.82;7.07;;;;;;;;;;5079877;28;20041;-86
2023/06/27 00:31:40;;;;;;;8.80;6.70;;;;;;;;;;5066118;28;20044;-85
2023/06/27 00:34:29;;;;;;;10.35;6.40;;;;;;;;;;5065504;28;20040;-84
2023/06/27 00:37:14;;;;;;;10.02;6.80;;;;;;;;;;5073756;28;20044;-84
2023/06/27 00:39:59;;;;;;;7.80;6.30;;;;;;;;;;5065637;28;20041;-84
2023/06/27 00:42:45;;;;;;;9.02;6.50;;;;;;;;;;5079703;28;20393;-85
2023/06/27 00:45:30;;;;;;;8.45;6.10;;;;;;;;;;5060928;28;20477;-83
2023/06/27 00:48:16;;;;;;;8.20;5.70;;;;;;;;;;5079652;28;20494;-84
2023/06/27 00:51:03;;;;;;;8.82;6.20;;;;;;;;;;5074223;28;20044;-83
2023/06/27 00:53:48;;;;;;;8.85;6.05;;;;;;;;;;5065630;28;20044;-83
2023/06/27 00:56:36;;;;;;;10.27;6.47;;;;;;;;;;5080063;28;20040;-83
2023/06/27 00:59:24;;;;;;;7.22;6.25;;;;;;;;;;5065700;28;20041;-83
2023/06/27 01:02:09;;;;;;;10.00;6.38;;;;;;;;;;5073998;28;20469;-83
2023/06/27 01:04:55;;;;;;;11.82;6.80;;;;;;;;;;5074006;28;20044;-83
2023/06/27 01:08:03;;;;;;;9.68;6.85;;;;;;;;;;5073887;28;20494;-83
2023/06/27 01:11:05;;;;;;;8.70;6.30;;;;;;;;;;5079030;28;20398;-82
2023/06/27 01:13:55;;;;;;;9.73;6.55;;;;;;;;;;5079707;28;20048;-81
2023/06/27 01:16:40;;;;;;;10.98;7.15;;;;;;;;;;5073770;28;20048;-83
2023/06/27 01:19:29;;;;;;;8.98;6.05;;;;;;;;;;5079245;28;20044;-83
2023/06/27 01:22:18;;;;;;;10.73;6.45;;;;;;;;;;5073733;28;20048;-82
2023/06/27 01:25:07;;;;;;;9.10;5.80;;;;;;;;;;5079461;28;20044;-83
2023/06/27 01:27:55;;;;;;;9.00;6.60;;;;;;;;;;5079095;28;20405;-83
2023/06/27 01:30:41;;;;;;;8.43;6.13;;;;;;;;;;5073243;28;20474;-83
2023/06/27 01:33:40;;;;;;;10.20;6.03;;;;;;;;;;5073305;28;20048;-82
2023/06/27 01:36:40;;;;;;;8.82;6.55;;;;;;;;;;5079086;28;20052;-83
2023/06/27 01:39:37;;;;;;;7.60;6.20;;;;;;;;;;5073678;28;20140;-81
2023/06/27 01:42:27;;;;;;;9.68;6.65;;;;;;;;;;5073102;28;20505;-83
2023/06/27 01:45:14;;;;;;;9.23;6.22;;;;;;;;;;5073013;28;20037;-83
2023/06/27 01:48:01;;;;;;;8.93;6.40;;;;;;;;;;5073399;28;20036;-83
2023/06/27 01:50:47;;;;;;;9.45;6.20;;;;;;;;;;5073458;28;20040;-83
2023/06/27 01:53:32;;;;;;;10.13;6.50;;;;;;;;;;5073630;28;20049;-83
2023/06/27 01:56:18;;;;;;;7.97;6.18;;;;;;;;;;5072928;28;20041;-83
2023/06/27 01:59:04;;;;;;;10.38;6.72;;;;;;;;;;5079123;28;20040;-82
2023/06/27 02:01:50;;;;;;;10.93;5.93;;;;;;;;;;5079425;28;20041;-83
2023/06/27 02:04:35;;;;;;;8.60;6.13;;;;;;;;;;5073249;28;20041;-83
2023/06/27 02:07:20;;;;;;;7.65;5.93;;;;;;;;;;5079718;28;20389;-83
2023/06/27 02:10:07;;;;;;;7.82;6.03;;;;;;;;;;5078081;28;20512;-83
2023/06/27 02:12:52;;;;;;;8.45;6.38;;;;;;;;;;5096443;28;20020;-83
2023/06/27 02:15:38;;;;;;;9.65;6.35;;;;;;;;;;5096253;28;20053;-82
2023/06/27 02:18:23;;;;;;;9.52;6.43;;;;;;;;;;5080062;28;20040;-83
2023/06/27 02:21:08;;;;;;;8.90;6.03;;;;;;;;;;5080770;28;20041;-83
2023/06/27 02:23:54;;;;;;;7.68;6.25;;;;;;;;;;5082582;28;20052;-82
2023/06/27 02:26:39;;;;;;;9.95;6.63;;;;;;;;;;5077358;28;20044;-83
2023/06/27 02:29:25;;;;;;;9.95;6.63;;;;;;;;;;5082769;28;20040;-83
2023/06/27 02:32:10;;;;;;;8.63;6.20;;;;;;;;;;5075994;28;20052;-83
2023/06/27 02:34:55;;;;;;;11.48;6.25;;;;;;;;;;5076623;28;20040;-83
2023/06/27 02:37:41;;;;;;;11.02;6.43;;;;;;;;;;5082151;28;20044;-83
2023/06/27 02:40:28;;;;;;;10.00;6.60;;;;;;;;;;5083447;28;20040;-82
2023/06/27 02:43:13;;;;;;;13.32;6.57;;;;;;;;;;5076180;28;20033;-82
2023/06/27 02:45:58;;;;;;;9.45;6.22;;;;;;;;;;5075943;28;20045;-82
2023/06/27 02:48:44;;;;;;;12.73;6.90;;;;;;;;;;5075908;28;20044;-83
2023/06/27 02:51:30;;;;;;;9.90;6.95;;;;;;;;;;5076428;28;20466;-83
2023/06/27 02:54:15;;;;;;;9.32;6.38;;;;;;;;;;5076194;28;20036;-83
2023/06/27 02:57:01;;;;;;;10.90;6.78;;;;;;;;;;5075973;28;20044;-83
2023/06/27 02:59:46;;;;;;;14.10;6.90;;;;;;;;;;5081673;28;20074;-83
2023/06/27 03:02:33;;;;;;;12.90;7.75;;;;;;;;;;5081927;28;20049;-83
2023/06/27 03:05:18;;;;;;;7.50;6.45;;;;;;;;;;5081984;28;20049;-83
2023/06/27 03:08:04;;;;;;;14.30;6.85;;;;;;;;;;5076138;28;20497;-83
2023/06/27 03:10:49;;;;;;;12.38;6.35;;;;;;;;;;5081514;28;20037;-83
2023/06/27 03:13:34;;;;;;;10.02;6.75;;;;;;;;;;5080827;28;20049;-84
2023/06/27 03:16:20;;;;;;;11.63;6.47;;;;;;;;;;5081667;28;20049;-83
2023/06/27 03:19:05;;;;;;;11.73;6.25;;;;;;;;;;5081940;28;20036;-83
2023/06/27 03:21:50;;;;;;;12.55;7.00;;;;;;;;;;5080135;28;20075;-83
2023/06/27 03:24:35;;;;;;;8.27;6.38;;;;;;;;;;5075140;28;20409;-84
2023/06/27 03:27:23;;;;;;;9.80;6.63;;;;;;;;;;5076123;28;20040;-84
2023/06/27 03:30:10;;;;;;;11.13;6.43;;;;;;;;;;5081595;28;20040;-83
2023/06/27 03:32:56;;;;;;;11.23;6.55;;;;;;;;;;5080107;28;20048;-83
2023/06/27 03:35:42;;;;;;;12.45;6.15;;;;;;;;;;5081242;28;20048;-82
2023/06/27 03:38:27;;;;;;;15.38;6.75;;;;;;;;;;5081283;28;20048;-83
2023/06/27 03:41:15;;;;;;;9.23;6.47;;;;;;;;;;5082076;28;20049;-83
2023/06/27 03:44:01;;;;;;;11.50;6.07;;;;;;;;;;5080431;28;20044;-83
2023/06/27 03:46:46;;;;;;;11.73;6.70;;;;;;;;;;5080569;28;20048;-83
2023/06/27 03:49:32;;;;;;;10.85;6.72;;;;;;;;;;5080896;28;20052;-83
2023/06/27 03:52:18;;;;;;;11.55;5.95;;;;;;;;;;5081110;28;20060;-83
2023/06/27 03:55:04;;;;;;;9.00;6.63;;;;;;;;;;5080795;28;20432;-83
2023/06/27 03:57:49;;;;;;;14.25;6.78;;;;;;;;;;5080682;28;20040;-81
2023/06/27 04:00:36;;;;;;;12.10;6.78;;;;;;;;;;5080668;28;20478;-83
2023/06/27 04:03:22;;;;;;;13.65;6.75;;;;;;;;;;5079922;28;20044;-83
2023/06/27 04:06:08;;;;;;;11.30;6.07;;;;;;;;;;5080477;28;20045;-83
2023/06/27 04:08:54;;;;;;;8.65;6.10;;;;;;;;;;5066434;28;20044;-83
2023/06/27 04:11:40;;;;;;;12.10;6.43;;;;;;;;;;5080046;28;20044;-83
2023/06/27 04:14:25;;;;;;;15.32;6.80;;;;;;;;;;5075199;28;20466;-83
2023/06/27 04:17:11;;;;;;;9.77;6.93;;;;;;;;;;5074343;28;20397;-83
2023/06/27 04:19:56;;;;;;;11.43;7.22;;;;;;;;;;5080030;28;20381;-83
2023/06/27 04:22:42;;;;;;;7.85;6.60;;;;;;;;;;5079871;28;20044;-83
2023/06/27 04:25:32;;;;;;;13.23;7.22;;;;;;;;;;5080767;28;20044;-83
2023/06/27 04:28:18;;;;;;;12.68;6.90;;;;;;;;;;5079938;28;20040;-84
2023/06/27 04:31:03;;;;;;;10.15;6.18;;;;;;;;;;5074465;28;20044;-83
2023/06/27 04:33:48;;;;;;;10.30;6.65;;;;;;;;;;5074508;28;20132;-82
2023/06/27 04:36:36;;;;;;;13.20;7.10;;;;;;;;;;5074232;28;20485;-83
2023/06/27 04:39:21;;;;;;;10.13;6.80;;;;;;;;;;5074675;28;20056;-81
2023/06/27 04:42:07;;;;;;;15.65;6.95;;;;;;;;;;5080539;28;20389;-81
2023/06/27 04:44:51;;;;;;;10.57;6.95;;;;;;;;;;5072219;28;20044;-83
2023/06/27 04:47:37;;;;;;;10.00;7.22;;;;;;;;;;5073731;28;20052;-82
2023/06/27 04:50:23;;;;;;;15.57;7.55;;;;;;;;;;5080578;28;20045;-81
2023/06/27 04:53:08;;;;;;;14.27;8.77;;;;;;;;;;5074839;28;20049;-81
2023/06/27 04:55:54;;;;;;;10.85;7.07;;;;;;;;;;5074059;28;20485;-81
2023/06/27 04:58:39;;;;;;;14.13;7.65;;;;;;;;;;5074156;28;20032;-82
2023/06/27 05:01:25;;;;;;;10.10;6.72;;;;;;;;;;5073630;28;20040;-82
2023/06/27 05:04:11;;;;;;;11.30;6.47;;;;;;;;;;5080099;28;20041;-82
2023/06/27 05:06:56;;;;;;;12.38;7.13;;;;;;;;;;5073962;28;20041;-82
2023/06/27 05:09:42;;;;;;;8.50;6.50;;;;;;;;;;5074288;28;20049;-81
2023/06/27 05:12:28;;;;;;;10.32;6.65;;;;;;;;;;5080141;28;20052;-82
2023/06/27 05:15:13;;;;;;;10.07;6.47;;;;;;;;;;5073947;28;20041;-81
2023/06/27 05:18:06;;;;;;;11.80;6.13;;;;;;;;;;5073601;28;20401;-81
2023/06/27 05:20:52;;;;;;;9.30;6.05;;;;;;;;;;5073996;28;20481;-82
2023/06/27 05:23:38;;;;;;;12.43;6.07;;;;;;;;;;5078615;28;20052;-81
2023/06/27 05:26:24;;;;;;;7.10;5.70;;;;;;;;;;5080370;28;20048;-83
2023/06/27 05:29:10;;;;;;;6.55;5.82;;;;;;;;;;5073935;28;20040;-81
2023/06/27 05:31:55;;;;;;;9.13;6.10;;;;;;;;;;5072800;28;20044;-83
2023/06/27 05:34:41;;;;;;;10.07;5.68;;;;;;;;;;5074120;28;20044;-81
2023/06/27 05:37:27;;;;;;;6.88;5.05;;;;;;;;;;5074326;28;20041;-81
2023/06/27 05:40:13;;;;;;;7.32;5.50;;;;;;;;;;5073665;28;20036;-82
2023/06/27 05:42:58;;;;;;;6.78;5.05;;;;;;;;;;5073189;28;20052;-81
2023/06/27 05:45:44;;;;;;;10.38;6.22;;;;;;;;;;5074034;28;20051;-80
2023/06/27 05:48:29;;;;;;;9.48;6.82;;;;;;;;;;5073397;28;20037;-81
2023/06/27 05:51:15;;;;;;;7.70;5.68;;;;;;;;;;5071443;28;20048;-82
2023/06/27 05:54:03;;;;;;;8.13;5.82;;;;;;;;;;5078642;28;20049;-83
2023/06/27 05:56:49;;;;;;;6.40;5.30;;;;;;;;;;5082061;28;20405;-82
2023/06/27 05:59:34;;;;;;;10.30;6.22;;;;;;;;;;5083883;28;20486;-82
2023/06/27 06:02:20;;;;;;;13.15;8.98;;;;;;;;;;5076648;28;20037;-81
2023/06/27 06:05:07;;;;;;;7.53;5.68;;;;;;;;;;5076726;28;20048;-81
2023/06/27 06:07:52;;;;;;;10.52;5.90;;;;;;;;;;5076541;28;20509;-82
2023/06/27 06:10:38;;;;;;;6.65;5.85;;;;;;;;;;5076964;28;20049;-82
2023/06/27 06:13:23;;;;;;;7.72;5.75;;;;;;;;;;5076623;28;20033;-82
2023/06/27 06:16:09;;;;;;;9.27;5.75;;;;;;;;;;5076600;28;20044;-81
2023/06/27 06:18:54;;;;;;;7.75;5.72;;;;;;;;;;5075792;28;20040;-81
2023/06/27 06:21:40;;;;;;;7.65;5.60;;;;;;;;;;5076541;28;20040;-82
2023/06/27 06:24:29;;;;;;;8.73;5.55;;;;;;;;;;5075002;28;20045;-81
2023/06/27 06:27:14;;;;;;;7.72;5.28;;;;;;;;;;5076167;28;20066;-82
2023/06/27 06:30:00;;;;;;;9.23;5.60;;;;;;;;;;5076297;28;20056;-82
2023/06/27 06:32:46;;;;;;;6.72;5.32;;;;;;;;;;5076191;28;20036;-82
2023/06/27 06:35:31;;;;;;;8.82;5.55;;;;;;;;;;5075051;28;20041;-82
2023/06/27 06:38:17;;;;;;;7.72;5.22;;;;;;;;;;5076207;28;20040;-80
2023/06/27 06:41:02;;;;;;;8.63;5.55;;;;;;;;;;5076381;28;20040;-81
2023/06/27 06:43:48;;;;;;;9.80;5.47;;;;;;;;;;5075517;28;20052;-82
2023/06/27 06:46:35;;;;;;;9.10;5.65;;;;;;;;;;5076395;28;20435;-80
2023/06/27 06:49:20;;;;;;;7.00;5.25;;;;;;;;;;5076293;28;20389;-81
2023/06/27 06:52:06;;;;;;;6.45;5.10;;;;;;;;;;5076110;28;20036;-83
2023/06/27 06:54:52;;;;;;;10.13;5.80;;;;;;;;;;5082816;28;20049;-82
2023/06/27 06:57:37;;;;;;;6.55;5.07;;;;;;;;;;5076190;28;20048;-82
2023/06/27 07:00:23;;;;;;;6.55;5.35;;;;;;;;;;5076086;28;20040;-81
2023/06/27 07:03:09;;;;;;;6.88;5.13;;;;;;;;;;5074500;28;20697;-82
2023/06/27 07:05:55;;;;;;;10.15;5.40;;;;;;;;;;5076035;28;20045;-82
2023/06/27 07:08:40;;;;;;;9.05;5.18;;;;;;;;;;5075368;28;20494;-81
2023/06/27 07:11:25;;;;;;;7.25;5.30;;;;;;;;;;5081433;28;20084;-81
2023/06/27 07:14:12;;;;;;;6.95;5.20;;;;;;;;;;5082781;28;20036;-82
2023/06/27 07:16:57;;;;;;;6.40;5.50;;;;;;;;;;5075781;28;20044;-82
2023/06/27 07:19:43;;;;;;;8.57;5.60;;;;;;;;;;5082483;28;20482;-82
2023/06/27 07:22:28;;;;;;;9.45;5.30;;;;;;;;;;5076478;28;20044;-83
2023/06/27 07:25:14;;;;;;;6.38;5.30;;;;;;;;;;5075428;28;20044;-81
2023/06/27 07:27:59;;;;;;;6.97;5.10;;;;;;;;;;5083098;28;20053;-79
2023/06/27 07:30:45;;;;;;;7.05;4.72;;;;;;;;;;5082577;28;20052;-78
2023/06/27 07:33:31;;;;;;;8.50;5.38;;;;;;;;;;5079233;28;20417;-80
2023/06/27 07:36:17;;;;;;;10.57;5.20;;;;;;;;;;5075896;28;20393;-79
2023/06/27 07:39:03;;;;;;;8.93;5.55;;;;;;;;;;5081490;28;20044;-76
2023/06/27 07:41:48;;;;;;;10.68;5.90;;;;;;;;;;5074992;28;20044;-76
2023/06/27 07:44:35;;;;;;;9.45;5.40;;;;;;;;;;5074789;28;20048;-78
2023/06/27 07:47:20;;;;;;;8.85;5.72;;;;;;;;;;5081720;28;20053;-80
2023/06/27 07:50:06;;;;;;;9.95;5.68;;;;;;;;;;5074823;28;20044;-80
2023/06/27 07:52:52;;;;;;;11.05;6.03;;;;;;;;;;5081637;28;20049;-78
2023/06/27 07:55:37;;;;;;;8.23;6.10;;;;;;;;;;5075399;28;20386;-79
2023/06/27 07:58:22;;;;;;;11.57;6.72;;;;;;;;;;5081005;28;20048;-78
2023/06/27 08:01:08;;;;;;;10.63;6.47;;;;;;;;;;5081637;28;20045;-79
2023/06/27 08:03:54;;;;;;;9.40;5.78;;;;;;;;;;5080651;28;20489;-79
2023/06/27 08:06:39;;;;;;;10.32;5.97;;;;;;;;;;5081012;28;20044;-79
2023/06/27 08:09:25;;;;;;;9.48;7.18;;;;;;;;;;5074796;28;20048;-78
2023/06/27 08:12:11;;;;;;;7.00;4.75;;;;;;;;;;5081506;28;20044;-79
2023/06/27 08:14:56;;;;;;;8.68;5.53;;;;;;;;;;5074567;28;20040;-80
2023/06/27 08:17:41;;;;;;;6.22;5.40;;;;;;;;;;5081007;28;20041;-78
2023/06/27 08:20:28;;;;;;;7.18;4.72;;;;;;;;;;5081234;28;20044;-77
2023/06/27 08:23:13;;;;;;;6.78;4.85;;;;;;;;;;5074462;28;20040;-78
2023/06/27 08:25:59;;;;;;;11.70;5.00;;;;;;;;;;5074152;28;20493;-77
2023/06/27 08:28:45;;;;;;;9.05;4.97;;;;;;;;;;5074379;28;20477;-78
2023/06/27 08:31:30;;;;;;;9.10;5.28;;;;;;;;;;5073991;28;20032;-82
2023/06/27 08:34:15;;;;;;;5.05;4.38;;;;;;;;;;5081123;28;20044;-78
2023/06/27 08:37:01;;;;;;;7.72;4.75;;;;;;;;;;5081014;28;20394;-80
2023/06/27 08:39:51;;;;;;;6.15;4.63;;;;;;;;;;5081063;28;20483;-76
2023/06/27 08:42:38;;;;;;;7.82;4.32;;;;;;;;;;5072686;28;20036;-76
2023/06/27 08:45:24;;;;;;;6.60;4.97;;;;;;;;;;5073688;28;20048;-76
2023/06/27 08:48:11;;;;;;;12.38;4.53;;;;;;;;;;5081017;28;20049;-78
2023/06/27 08:50:58;;;;;;;5.97;3.83;;;;;;;;;;5073654;28;20079;-78
2023/06/27 08:53:48;;;;;;;5.43;3.90;;;;;;;;;;5080236;28;20048;-77
2023/06/27 08:56:34;;;;;;;5.13;3.35;;;;;;;;;;5073844;28;20045;-77
2023/06/27 08:59:24;;;;;;;6.30;3.83;;;;;;;;;;5072423;28;20040;-77
2023/06/27 09:02:12;;;;;;;6.75;3.30;;;;;;;;;;5072203;28;20049;-78
2023/06/27 09:04:58;;;;;;;4.45;3.70;;;;;;;;;;5073322;28;20044;-78
2023/06/27 09:07:44;;;;;;;4.53;3.20;;;;;;;;;;5072012;28;20048;-78
2023/06/27 09:10:30;;;;;;;5.70;2.55;;;;;;;;;;5080527;28;20053;-77
2023/06/27 09:13:16;;;;;;;3.58;2.80;;;;;;;;;;5073157;28;20052;-77
2023/06/27 09:16:01;;;;;;;5.20;3.58;;;;;;;;;;5080314;28;20040;-77
2023/06/27 09:18:47;;;;;;;4.53;3.45;;;;;;;;;;5080285;28;20048;-77
2023/06/27 09:21:34;;;;;;;4.03;3.22;;;;;;;;;;5080611;28;20379;-77
2023/06/27 09:24:23;;;;;;;5.38;3.22;;;;;;;;;;5073285;28;20045;-82
2023/06/27 09:27:29;;;;;;;10.70;3.67;;;;;;;;;;5073005;28;20501;-81
2023/06/27 09:30:15;;;;;;;3.85;3.30;;;;;;;;;;5074539;28;20045;-82
2023/06/27 09:33:00;;;;;;;5.55;2.70;;;;;;;;;;5084352;28;20048;-83
2023/06/27 09:35:46;;;;;;;3.97;2.95;;;;;;;;;;5084294;28;20052;-83
2023/06/27 09:38:34;;;;;;;3.97;2.92;;;;;;;;;;5077539;28;20040;-82
2023/06/27 09:41:19;;;;;;;5.95;3.08;;;;;;;;;;5084617;28;20044;-82
2023/06/27 09:44:04;;;;;;;4.07;3.13;;;;;;;;;;5082996;28;20041;-82
2023/06/27 09:46:51;;;;;;;5.72;3.55;;;;;;;;;;5077601;28;20405;-82
2023/06/27 09:49:41;;;;;;;5.72;3.65;;;;;;;;;;5082958;28;20485;-81
2023/06/27 09:52:27;;;;;;;4.18;3.25;;;;;;;;;;5077608;28;20049;-82
2023/06/27 09:55:20;;;;;;;5.75;3.40;;;;;;;;;;5077692;28;20040;-83
2023/06/27 09:58:06;;;;;;;3.70;2.97;;;;;;;;;;5077607;28;20053;-82
2023/06/27 10:00:51;;;;;;;5.78;3.28;;;;;;;;;;5083897;28;20045;-83
2023/06/27 10:03:37;;;;;;;14.50;3.35;;;;;;;;;;5083772;28;20405;-83
2023/06/27 10:06:22;;;;;;;3.88;3.10;;;;;;;;;;5083765;28;20040;-82
2023/06/27 10:09:08;;;;;;;8.05;3.20;;;;;;;;;;5076964;28;20052;-82
2023/06/27 10:11:54;;;;;;;3.58;2.90;;;;;;;;;;5077221;28;20469;-82
2023/06/27 10:14:39;;;;;;;5.60;3.58;;;;;;;;;;5082982;28;20045;-83
2023/06/27 10:17:28;;;;;;;4.85;3.08;;;;;;;;;;5077092;28;20033;-82
2023/06/27 10:20:13;;;;;;;5.65;3.30;;;;;;;;;;5083624;28;20409;-81
2023/06/27 10:22:59;;;;;;;4.93;3.42;;;;;;;;;;5076817;28;20044;-82
2023/06/27 10:25:45;;;;;;;7.28;3.45;;;;;;;;;;5076574;28;20041;-81
2023/06/27 10:28:31;;;;;;;5.38;3.53;;;;;;;;;;5076735;28;20040;-82
2023/06/27 10:31:42;;;;;;;7.07;3.30;;;;;;;;;;5076597;28;20041;-82
2023/06/27 10:34:39;;;;;;;6.53;3.50;;;;;;;;;;5083306;28;20044;-82
2023/06/27 10:37:25;;;;;;;5.70;3.15;;;;;;;;;;5083741;28;20041;-83
2023/06/27 10:40:12;;;;;;;5.43;3.45;;;;;;;;;;5076748;28;20048;-81
2023/06/27 10:42:57;;;;;;;4.80;3.70;;;;;;;;;;5076736;28;20036;-82
2023/06/27 10:46:16;;;;;;;5.90;3.58;;;;;;;;;;5076101;28;20040;-83
2023/06/27 10:49:04;;;;;;;8.43;3.05;;;;;;;;;;5076193;28;20053;-83
2023/06/27 10:51:51;;;;;;;3.83;3.42;;;;;;;;;;5082907;28;20474;-82
2023/06/27 10:54:41;;;;;;;5.90;3.03;;;;;;;;;;5083409;28;20425;-82
2023/06/27 10:57:38;;;;;;;5.88;3.55;;;;;;;;;;5076628;28;20040;-83
2023/06/27 11:00:26;;;;;;;7.53;3.60;;;;;;;;;;5075766;28;20041;-81
2023/06/27 11:03:11;;;;;;;5.45;3.58;;;;;;;;;;5082742;28;20397;-82
2023/06/27 11:05:58;;;;;;;4.13;3.28;;;;;;;;;;5076236;28;20466;-81
2023/06/27 11:08:54;;;;;;;4.85;3.15;;;;;;;;;;5075976;28;20045;-82
2023/06/27 11:11:40;;;;;;;4.70;3.47;;;;;;;;;;5081461;28;20045;-82
2023/06/27 11:14:38;;;;;;;3.97;3.25;;;;;;;;;;5075413;28;20045;-83
2023/06/27 11:17:24;;;;;;;4.28;3.28;;;;;;;;;;5081340;28;20036;-83
2023/06/27 11:20:10;;;;;;;3.83;3.42;;;;;;;;;;5082580;28;20037;-83
2023/06/27 11:22:54;;;;;;;9.95;4.47;;;;;;;;;;5073997;28;20037;-83
2023/06/27 11:25:44;;;;;;;4.60;3.47;;;;;;;;;;5076013;28;20037;-83
2023/06/27 11:28:30;;;;;;;7.95;3.70;;;;;;;;;;5075851;28;20373;-81
2023/06/27 11:31:16;;;;;;;4.78;3.60;;;;;;;;;;5082600;28;20044;-82
2023/06/27 11:34:04;;;;;;;7.57;3.88;;;;;;;;;;5075607;28;20497;-82
2023/06/27 11:36:50;;;;;;;5.75;3.90;;;;;;;;;;5075461;28;20485;-82
2023/06/27 11:39:35;;;;;;;6.18;3.55;;;;;;;;;;5082414;28;20044;-83
2023/06/27 11:42:33;;;;;;;4.53;3.30;;;;;;;;;;5074984;28;20401;-83
2023/06/27 11:45:19;;;;;;;16.88;4.78;;;;;;;;;;5077428;28;20052;-82
2023/06/27 11:48:05;;;;;;;6.28;3.35;;;;;;;;;;5095378;28;20482;-82
2023/06/27 11:51:08;;;;;;;4.43;3.53;;;;;;;;;;5082804;28;20032;-81
2023/06/27 11:53:54;;;;;;;4.90;3.80;;;;;;;;;;5082870;28;20044;-83
2023/06/27 11:56:40;;;;;;;6.53;3.60;;;;;;;;;;5076586;28;20044;-77
2023/06/27 11:59:30;;;;;;;4.63;3.17;;;;;;;;;;5081390;28;20037;-78
2023/06/27 12:02:16;;;;;;;6.05;3.53;;;;;;;;;;5074773;28;20049;-79
2023/06/27 12:05:02;;;;;;;4.85;3.55;;;;;;;;;;5074802;28;20389;-79
2023/06/27 12:08:20;;;;;;;8.60;3.78;;;;;;;;;;5082259;28;20040;-79
2023/06/27 12:11:05;;;;;;;4.13;3.60;;;;;;;;;;5070013;28;20067;-80
2023/06/27 12:13:51;;;;;;;6.00;3.85;;;;;;;;;;5081766;28;20393;-79
2023/06/27 12:16:36;;;;;;;6.88;3.78;;;;;;;;;;5081507;28;20036;-79
2023/06/27 12:19:23;;;;;;;4.55;3.65;;;;;;;;;;5074567;28;20045;-81
2023/06/27 12:22:08;;;;;;;4.70;3.33;;;;;;;;;;5074375;28;20048;-76
2023/06/27 12:24:54;;;;;;;14.55;3.90;;;;;;;;;;5073957;28;20343;-77
2023/06/27 12:27:39;;;;;;;8.35;3.80;;;;;;;;;;5080680;28;20052;-77
2023/06/27 12:30:25;;;;;;;4.82;3.58;;;;;;;;;;5081025;28;20041;-77
2023/06/27 12:33:11;;;;;;;11.68;3.47;;;;;;;;;;5074517;28;20044;-78
2023/06/27 12:35:56;;;;;;;3.90;3.50;;;;;;;;;;5079968;28;20052;-77
2023/06/27 12:38:41;;;;;;;7.55;3.70;;;;;;;;;;5074456;28;20041;-78
2023/06/27 12:41:28;;;;;;;6.30;3.80;;;;;;;;;;5073981;28;20045;-77
2023/06/27 12:44:14;;;;;;;7.40;3.72;;;;;;;;;;5072191;28;20065;-77
2023/06/27 12:46:59;;;;;;;5.60;3.65;;;;;;;;;;5080885;28;20049;-82
2023/06/27 12:49:45;;;;;;;8.30;3.70;;;;;;;;;;5074670;28;20056;-82
2023/06/27 12:52:30;;;;;;;6.97;3.70;;;;;;;;;;5074876;28;20470;-82
2023/06/27 12:55:18;;;;;;;5.10;3.92;;;;;;;;;;5082787;28;20048;-83
2023/06/27 12:58:04;;;;;;;6.68;4.18;;;;;;;;;;5081582;28;20033;-84
2023/06/27 13:00:50;;;;;;;5.78;4.38;;;;;;;;;;5074186;28;20502;-83
2023/06/27 13:03:36;;;;;;;8.55;4.07;;;;;;;;;;5074496;28;20053;-84
2023/06/27 13:06:21;;;;;;;5.03;4.18;;;;;;;;;;5074343;28;20036;-84
2023/06/27 13:09:07;;;;;;;6.30;4.28;;;;;;;;;;5074290;28;20470;-84
2023/06/27 13:11:55;;;;;;;5.03;4.20;;;;;;;;;;5080074;28;20048;-84
2023/06/27 13:14:41;;;;;;;8.32;4.90;;;;;;;;;;5081257;28;20045;-83
2023/06/27 13:17:26;;;;;;;5.20;4.70;;;;;;;;;;5080152;28;20033;-83
2023/06/27 13:20:12;;;;;;;8.10;4.70;;;;;;;;;;5073533;28;20386;-83
2023/06/27 13:22:58;;;;;;;6.60;4.07;;;;;;;;;;5073634;28;20401;-84
2023/06/27 13:25:44;;;;;;;6.00;4.65;;;;;;;;;;5073445;28;20056;-84
2023/06/27 13:28:29;;;;;;;8.25;4.70;;;;;;;;;;5080657;28;20040;-85
2023/06/27 13:31:14;;;;;;;7.13;4.70;;;;;;;;;;5073553;28;20041;-83
2023/06/27 13:34:00;;;;;;;8.02;5.20;;;;;;;;;;5073795;28;20401;-80
2023/06/27 13:36:47;;;;;;;5.47;4.93;;;;;;;;;;5079355;28;20044;-81
2023/06/27 13:39:34;;;;;;;5.82;5.00;;;;;;;;;;5072604;28;20478;-80
2023/06/27 13:42:20;;;;;;;6.47;5.65;;;;;;;;;;5079537;28;20040;-79
2023/06/27 13:45:06;;;;;;;8.20;5.80;;;;;;;;;;5072722;28;20049;-77
2023/06/27 13:47:51;;;;;;;10.35;5.88;;;;;;;;;;5073252;28;20044;-81
2023/06/27 13:50:37;;;;;;;9.18;6.13;;;;;;;;;;5072749;28;20040;-81
2023/06/27 13:53:23;;;;;;;5.88;5.07;;;;;;;;;;5073819;28;20040;-78
2023/06/27 13:56:09;;;;;;;6.53;5.40;;;;;;;;;;5072561;28;20426;-79
2023/06/27 13:58:54;;;;;;;10.35;5.57;;;;;;;;;;5080024;28;20036;-79
2023/06/27 14:01:40;;;;;;;8.93;5.95;;;;;;;;;;5080079;28;20064;-78
2023/06/27 14:04:25;;;;;;;9.00;6.15;;;;;;;;;;5079487;28;20037;-78
2023/06/27 14:07:11;;;;;;;7.03;6.22;;;;;;;;;;5072995;28;20049;-78
2023/06/27 14:09:57;;;;;;;6.10;5.45;;;;;;;;;;5071321;28;20049;-80
2023/06/27 14:12:42;;;;;;;6.32;5.72;;;;;;;;;;5079883;28;20049;-79
2023/06/27 14:15:29;;;;;;;7.68;5.18;;;;;;;;;;5072544;28;20044;-80
2023/06/27 14:18:20;;;;;;;6.78;5.20;;;;;;;;;;5083519;28;20064;-80
2023/06/27 14:21:08;;;;;;;8.88;5.38;;;;;;;;;;5083772;28;20041;-79
2023/06/27 14:23:55;;;;;;;12.50;6.00;;;;;;;;;;5076554;28;20049;-78
2023/06/27 14:26:40;;;;;;;8.40;5.57;;;;;;;;;;5083785;28;20489;-79
2023/06/27 14:29:27;;;;;;;7.43;5.35;;;;;;;;;;5076117;28;20040;-79
2023/06/27 14:32:12;;;;;;;6.88;5.00;;;;;;;;;;5082171;28;20037;-78
2023/06/27 14:34:58;;;;;;;6.93;5.60;;;;;;;;;;5076862;28;20052;-84
2023/06/27 14:37:44;;;;;;;8.82;6.18;;;;;;;;;;5076236;28;20044;-79
2023/06/27 14:40:29;;;;;;;9.30;5.93;;;;;;;;;;5076238;28;20092;-80
2023/06/27 14:44:06;;;;;;;6.43;5.78;;;;;;;;;;5076384;28;20402;-80
2023/06/27 14:46:51;;;;;;;7.55;6.63;;;;;;;;;;5076189;28;20056;-79
2023/06/27 14:49:37;;;;;;;11.00;6.07;;;;;;;;;;5075986;28;20044;-80
2023/06/27 14:52:22;;;;;;;8.40;6.47;;;;;;;;;;5075558;28;20052;-80
2023/06/27 14:55:08;;;;;;;9.57;6.70;;;;;;;;;;5082780;28;20048;-78
2023/06/27 14:58:22;;;;;;;8.10;6.15;;;;;;;;;;5083711;28;20044;-80
2023/06/27 15:01:08;;;;;;;6.50;5.90;;;;;;;;;;5082545;28;20048;-79
2023/06/27 15:03:54;;;;;;;9.20;5.65;;;;;;;;;;5081565;28;20041;-77
2023/06/27 15:06:39;;;;;;;10.43;5.60;;;;;;;;;;5075568;28;20478;-80
2023/06/27 15:09:25;;;;;;;7.30;5.60;;;;;;;;;;5082413;28;20033;-78
2023/06/27 15:12:10;;;;;;;5.50;4.95;;;;;;;;;;5082242;28;20045;-79
2023/06/27 15:14:58;;;;;;;7.80;5.35;;;;;;;;;;5075174;28;20048;-83
2023/06/27 15:17:44;;;;;;;5.35;4.85;;;;;;;;;;5074999;28;20393;-77
2023/06/27 15:20:30;;;;;;;6.22;4.90;;;;;;;;;;5075510;28;20056;-80
2023/06/27 15:23:15;;;;;;;6.63;4.97;;;;;;;;;;5082548;28;20037;-77
2023/06/27 15:26:00;;;;;;;9.18;4.50;;;;;;;;;;5082112;28;20048;-78
2023/06/27 15:28:48;;;;;;;6.20;4.60;;;;;;;;;;5074933;28;20045;-80
2023/06/27 15:31:33;;;;;;;4.40;3.85;;;;;;;;;;5075755;28;20044;-82
2023/06/27 15:34:19;;;;;;;5.97;4.18;;;;;;;;;;5075459;28;20517;-80
2023/06/27 15:37:18;;;;;;;5.78;4.28;;;;;;;;;;5082454;28;20485;-83
2023/06/27 15:40:04;;;;;;;8.48;4.75;;;;;;;;;;5082372;28;20409;-79
2023/06/27 15:42:49;;;;;;;6.40;4.68;;;;;;;;;;5081606;28;20049;-81
2023/06/27 15:45:35;;;;;;;25.95;6.40;;;;;;;;;;5076891;28;20045;-80
2023/06/27 15:48:20;;;;;;;11.75;5.15;;;;;;;;;;5082001;28;20048;-80
2023/06/27 15:51:05;;;;;;;8.13;5.43;;;;;;;;;;5074547;28;20473;-80
2023/06/27 15:53:51;;;;;;;9.63;4.53;;;;;;;;;;5074979;28;20596;-80
2023/06/27 15:56:38;;;;;;;5.55;4.40;;;;;;;;;;5082001;28;20048;-84
2023/06/27 15:59:23;;;;;;;7.55;4.43;;;;;;;;;;5074884;28;20049;-80
2023/06/27 16:02:09;;;;;;;8.40;4.75;;;;;;;;;;5081582;28;20048;-81
2023/06/27 16:04:54;;;;;;;7.05;4.95;;;;;;;;;;5081328;28;20040;-80
2023/06/27 16:07:40;;;;;;;5.95;4.22;;;;;;;;;;5080525;28;20044;-79
2023/06/27 16:10:25;;;;;;;6.82;4.50;;;;;;;;;;5080916;28;20385;-80
2023/06/27 16:13:12;;;;;;;6.15;4.47;;;;;;;;;;5074528;28;20036;-80
2023/06/27 16:15:57;;;;;;;5.47;4.20;;;;;;;;;;5081554;28;20048;-81
2023/06/27 16:18:42;;;;;;;5.30;4.13;;;;;;;;;;5074183;28;20040;-79
2023/06/27 16:22:21;;;;;;;6.32;4.20;;;;;;;;;;5080626;28;20040;-81
2023/06/27 16:25:07;;;;;;;6.47;4.30;;;;;;;;;;5073988;28;20052;-79
2023/06/27 16:27:52;;;;;;;5.45;3.83;;;;;;;;;;5081880;28;20036;-79
2023/06/27 16:30:38;;;;;;;6.95;4.57;;;;;;;;;;5083622;28;20041;-79
2023/06/27 16:37:10;;;;;;;6.47;4.75;;;;;;;;;;5080562;28;20064;-79
2023/06/27 16:39:56;;;;;;;8.95;4.68;;;;;;;;;;5073826;28;20052;-79
2023/06/27 16:42:42;;;;;;;8.73;4.68;;;;;;;;;;5080553;28;20048;-79